LOWW/VIE METAR and TAF weather

Enter ICAO airport designator
Station Type Date Time Source
LOWW METAR 2019/10/21 02:20 UTC NOAA

LOWW 210220Z VRB01KT 0300 R29/0400N FG VV001 10/09 Q1016 NOSIG


Station Type Date Time Source
LOWW Decoded METAR 2019/10/21 02:20 UTC NOAA

Wien / Schwechat-Flughafen, Austria (LOWW) 48-07N 016-34E 190M
Oct 20, 2019 - 10:20 PM EDT / 2019.10.21 0220 UTC
Wind: Variable at 1 MPH (1 KT):0
Visibility: less than 1 mile:0
Sky conditions: obscured
Weather: fog
Temperature: 50 F (10 C)
Dew Point: 48 F (9 C)
Relative Humidity: 93%
Pressure (altimeter): 30.00 in. Hg (1016 hPa)
ob: LOWW 210220Z VRB01KT 0300 R29/0400N FG VV001 10/09 Q1016 NOSIG
cycle: 2

Station Type Date Time Source
LOWW TAF 2019/10/21 03:21 UTC NOAA

TAF LOWW 210215Z 2103/2209 VRB02KT 0300 FG VV001 TX18/2114Z TN09/2105Z
BECMG 2108/2110 4000 BR FEW004 BKN006
FM211100 08005KT 9999 FEW025
BECMG 2119/2121 VRB02KT 4000 BR FEW002
BECMG 2122/2124 1200 BCFG SCT001
TEMPO 2201/2208 0500 FG VV001
BECMG 2207/2209 4000 BR FEW004 BKN006

Example: see airport list